createdAt,value
2017-07-01T00:00:20.695Z,14.90
2017-07-01T00:02:48.326Z,14.90
2017-07-01T00:05:15.982Z,14.80
2017-07-01T00:07:43.604Z,14.90
2017-07-01T00:10:11.234Z,14.90
2017-07-01T00:12:39.665Z,14.90
2017-07-01T00:15:07.291Z,14.90
2017-07-01T00:17:34.963Z,14.90
2017-07-01T00:20:02.620Z,14.90
2017-07-01T00:22:30.254Z,15.00
2017-07-01T00:24:57.911Z,15.00
2017-07-01T00:27:25.543Z,15.00
2017-07-01T00:29:53.403Z,14.90
2017-07-01T00:32:21.050Z,15.00
2017-07-01T00:34:48.680Z,15.00
2017-07-01T00:37:22.611Z,15.00
2017-07-01T00:39:50.245Z,15.10
2017-07-01T00:42:17.912Z,15.10
2017-07-01T00:44:46.316Z,15.10
2017-07-01T00:47:14.067Z,15.10
2017-07-01T00:49:41.722Z,15.20
2017-07-01T00:52:09.364Z,15.20
2017-07-01T00:54:37.038Z,15.20
2017-07-01T00:57:04.657Z,15.30
2017-07-01T00:59:33.344Z,15.30
2017-07-01T01:02:01.006Z,15.30
2017-07-01T01:04:28.640Z,15.30
2017-07-01T01:06:56.295Z,15.30
2017-07-01T01:09:24.075Z,15.40
2017-07-01T01:11:52.493Z,15.20
2017-07-01T01:14:20.188Z,15.10
2017-07-01T01:16:48.588Z,15.20
2017-07-01T01:19:16.239Z,15.10
2017-07-01T01:21:44.071Z,15.20
2017-07-01T01:24:11.716Z,15.10
2017-07-01T01:26:39.371Z,15.10
2017-07-01T01:29:07.012Z,15.00
2017-07-01T01:31:34.686Z,15.10
2017-07-01T01:34:02.319Z,15.00
2017-07-01T01:36:30.787Z,15.10
2017-07-01T01:38:58.447Z,15.00
2017-07-01T01:41:26.076Z,15.10
2017-07-01T01:43:53.748Z,15.10
2017-07-01T01:46:21.374Z,15.10
2017-07-01T01:48:48.995Z,15.10
2017-07-01T01:51:16.655Z,15.10
2017-07-01T01:53:44.454Z,15.10
2017-07-01T01:56:12.120Z,15.10
2017-07-01T01:58:40.529Z,15.10
2017-07-01T02:01:08.143Z,15.00
2017-07-01T02:03:35.873Z,15.00
2017-07-01T02:06:03.504Z,15.00
2017-07-01T02:08:43.044Z,15.10
2017-07-01T02:11:11.443Z,15.10
2017-07-01T02:13:39.077Z,15.00
2017-07-01T02:16:24.468Z,15.10
2017-07-01T02:18:52.098Z,15.10
2017-07-01T02:21:21.282Z,15.10
2017-07-01T02:23:49.847Z,15.20
2017-07-01T02:26:21.139Z,15.20
2017-07-01T02:28:48.773Z,15.30
2017-07-01T02:31:16.408Z,15.40
2017-07-01T02:33:55.768Z,15.40
2017-07-01T02:36:24.239Z,15.50
2017-07-01T02:38:51.894Z,15.50
2017-07-01T02:41:19.532Z,15.50
2017-07-01T02:43:47.993Z,15.50
2017-07-01T02:46:17.232Z,15.40
2017-07-01T02:49:01.391Z,15.40
2017-07-01T02:51:46.499Z,15.40
2017-07-01T02:54:33.646Z,15.40
2017-07-01T02:57:01.279Z,15.40
2017-07-01T02:59:32.999Z,15.40
2017-07-01T03:02:00.657Z,15.40
2017-07-01T03:04:28.285Z,15.40
2017-07-01T03:06:55.949Z,15.40
2017-07-01T03:09:23.579Z,15.50
2017-07-01T03:11:51.247Z,15.60
2017-07-01T03:14:18.888Z,15.50
2017-07-01T03:16:46.625Z,15.50
2017-07-01T03:19:14.453Z,15.50
2017-07-01T03:21:42.088Z,15.50
2017-07-01T03:24:09.768Z,15.60
2017-07-01T03:26:37.391Z,15.60
2017-07-01T03:29:20.790Z,15.70
2017-07-01T03:31:48.432Z,15.60
2017-07-01T03:34:16.085Z,15.60
2017-07-01T03:36:43.753Z,15.60
2017-07-01T03:39:23.446Z,15.70
2017-07-01T03:42:25.514Z,15.70
2017-07-01T03:45:01.785Z,15.70
2017-07-01T03:47:30.146Z,15.80
2017-07-01T03:49:59.517Z,15.80
2017-07-01T03:52:27.142Z,15.80
2017-07-01T03:54:56.368Z,15.80
2017-07-01T03:57:29.944Z,15.80
2017-07-01T03:59:57.611Z,15.80
2017-07-01T04:02:25.230Z,15.90
2017-07-01T04:04:52.999Z,15.90
2017-07-01T04:07:20.672Z,15.90
2017-07-01T04:09:48.295Z,15.80
2017-07-01T04:12:15.979Z,15.90
2017-07-01T04:14:43.619Z,15.80
2017-07-01T04:17:11.260Z,15.80
2017-07-01T04:19:52.644Z,15.80
2017-07-01T04:22:23.065Z,15.90
2017-07-01T04:24:51.484Z,16.00
2017-07-01T04:27:20.041Z,15.90
2017-07-01T04:29:47.662Z,16.00
2017-07-01T04:32:15.329Z,16.10
2017-07-01T04:34:43.115Z,16.00
2017-07-01T04:37:10.774Z,16.00
2017-07-01T04:39:38.398Z,16.10
2017-07-01T04:42:30.816Z,16.10
2017-07-01T04:45:03.104Z,16.10
2017-07-01T04:47:31.542Z,16.20
2017-07-01T04:49:59.176Z,16.20
2017-07-01T04:52:28.665Z,16.40
2017-07-01T04:54:59.234Z,16.50
2017-07-01T04:57:45.184Z,16.80
2017-07-01T05:00:15.156Z,16.70
2017-07-01T05:02:43.092Z,17.00
2017-07-01T05:05:10.720Z,17.10
2017-07-01T05:08:06.984Z,17.10
2017-07-01T05:10:47.100Z,17.30
2017-07-01T05:13:14.764Z,17.40
2017-07-01T05:15:45.747Z,17.60
2017-07-01T05:18:13.414Z,17.70
2017-07-01T05:20:45.470Z,17.80
2017-07-01T05:23:39.969Z,17.80
2017-07-01T05:26:07.608Z,17.70
2017-07-01T05:28:43.066Z,17.80
2017-07-01T05:31:21.125Z,17.70
2017-07-01T05:33:50.660Z,17.70
2017-07-01T05:36:20.085Z,17.70
2017-07-01T05:38:54.636Z,17.80
2017-07-01T05:41:26.893Z,18.00
2017-07-01T05:43:59.631Z,18.10
2017-07-01T05:46:28.000Z,18.00
2017-07-01T05:49:06.858Z,18.20
2017-07-01T05:51:35.351Z,18.50
2017-07-01T05:54:03.104Z,18.70
2017-07-01T05:56:30.780Z,18.80
2017-07-01T05:59:03.540Z,19.10
2017-07-01T06:01:31.200Z,19.10
2017-07-01T06:03:58.856Z,19.30
2017-07-01T06:06:26.483Z,19.50
2017-07-01T06:08:54.141Z,19.90
2017-07-01T06:11:21.788Z,20.20
2017-07-01T06:13:52.990Z,20.30
2017-07-01T06:16:36.225Z,20.40
2017-07-01T06:19:05.625Z,20.50
2017-07-01T06:21:48.131Z,20.40
2017-07-01T06:24:34.908Z,20.50
2017-07-01T06:27:18.343Z,20.50
2017-07-01T06:30:09.542Z,20.60
2017-07-01T06:32:49.896Z,20.20
2017-07-01T06:35:26.828Z,20.20
2017-07-01T06:38:16.385Z,20.20
2017-07-01T06:41:05.562Z,20.20
2017-07-01T06:43:33.655Z,20.60
2017-07-01T06:46:22.066Z,20.40
2017-07-01T06:48:49.790Z,20.10
2017-07-01T06:51:17.440Z,20.30
2017-07-01T06:53:55.483Z,20.50
2017-07-01T06:56:23.187Z,20.40
2017-07-01T06:58:51.649Z,20.50
2017-07-01T07:01:20.067Z,21.40
2017-07-01T07:03:49.214Z,21.40
2017-07-01T07:06:17.606Z,22.80
2017-07-01T07:08:46.217Z,23.50
2017-07-01T07:11:13.884Z,24.50
2017-07-01T07:13:41.568Z,25.00
2017-07-01T07:16:09.317Z,24.80
2017-07-01T07:18:36.992Z,23.70
2017-07-01T07:21:04.642Z,23.50
2017-07-01T07:23:32.240Z,23.50
2017-07-01T07:25:59.939Z,23.60
2017-07-01T07:28:27.606Z,23.40
2017-07-01T07:30:56.004Z,24.20
2017-07-01T07:33:23.729Z,24.10
2017-07-01T07:35:51.366Z,24.30
2017-07-01T07:38:19.934Z,24.00
2017-07-01T07:40:48.327Z,23.50
2017-07-01T07:43:15.997Z,23.40
2017-07-01T07:45:43.656Z,23.00
2017-07-01T07:48:11.284Z,22.90
2017-07-01T07:50:39.558Z,22.60
2017-07-01T07:53:07.167Z,22.60
2017-07-01T07:55:34.828Z,22.30
2017-07-01T07:58:02.502Z,21.90
2017-07-01T08:00:30.134Z,21.40
2017-07-01T08:02:58.281Z,21.20
2017-07-01T08:05:26.031Z,21.30
2017-07-01T08:07:54.418Z,21.60
2017-07-01T08:10:22.038Z,21.70
2017-07-01T08:12:49.635Z,21.90
2017-07-01T08:15:18.049Z,22.10
2017-07-01T08:17:45.651Z,22.10
2017-07-01T08:20:14.222Z,21.90
2017-07-01T08:22:42.620Z,21.80
2017-07-01T08:25:10.249Z,21.80
2017-07-01T08:27:37.895Z,21.90
2017-07-01T08:30:05.509Z,22.20
2017-07-01T08:32:34.425Z,22.40
2017-07-01T08:35:02.093Z,22.40
2017-07-01T08:37:29.715Z,22.90
2017-07-01T08:39:57.362Z,23.00
2017-07-01T08:42:24.975Z,23.40
2017-07-01T08:44:52.659Z,24.20
2017-07-01T08:47:20.301Z,24.00
2017-07-01T08:49:47.907Z,23.50
2017-07-01T08:52:15.549Z,23.30
2017-07-01T08:54:43.383Z,23.20
2017-07-01T08:57:11.029Z,22.90
2017-07-01T08:59:38.655Z,23.20
2017-07-01T09:02:06.298Z,23.00
2017-07-01T09:04:34.147Z,22.80
2017-07-01T09:07:01.755Z,22.50
2017-07-01T09:09:30.162Z,22.20
2017-07-01T09:11:57.792Z,22.10
2017-07-01T09:14:25.401Z,21.90
2017-07-01T09:16:56.363Z,21.70
2017-07-01T09:19:26.317Z,21.70
2017-07-01T09:21:54.148Z,21.90
2017-07-01T09:24:21.875Z,22.00
2017-07-01T09:26:49.480Z,21.90
2017-07-01T09:29:17.879Z,22.60
2017-07-01T09:31:45.477Z,22.60
2017-07-01T09:34:13.377Z,23.10
2017-07-01T09:36:41.654Z,23.50
2017-07-01T09:39:09.283Z,24.00
2017-07-01T09:41:37.783Z,24.70
2017-07-01T09:44:05.366Z,25.00
2017-07-01T09:46:33.795Z,24.60
2017-07-01T09:49:02.001Z,24.50
2017-07-01T09:51:30.375Z,23.70
2017-07-01T09:53:58.037Z,23.60
2017-07-01T09:56:25.807Z,23.40
2017-07-01T09:58:53.539Z,23.10
2017-07-01T10:01:21.156Z,22.90
2017-07-01T10:03:48.758Z,23.00
2017-07-01T10:06:16.423Z,22.70
2017-07-01T10:08:44.052Z,22.50
2017-07-01T10:11:11.693Z,22.50
2017-07-01T10:13:39.299Z,22.30
2017-07-01T10:16:07.058Z,21.90
2017-07-01T10:18:34.731Z,21.80
2017-07-01T10:21:02.355Z,21.80
2017-07-01T10:23:30.822Z,21.50
2017-07-01T10:25:58.470Z,21.50
2017-07-01T10:28:26.073Z,21.50
2017-07-01T10:30:54.484Z,21.90
2017-07-01T10:33:22.083Z,21.80
2017-07-01T10:35:50.487Z,21.90
2017-07-01T10:38:18.102Z,21.90
2017-07-01T10:40:46.477Z,21.70
2017-07-01T10:43:14.140Z,21.60
2017-07-01T10:45:41.791Z,21.70
2017-07-01T10:48:09.452Z,21.70
2017-07-01T10:50:37.080Z,21.50
2017-07-01T10:53:04.718Z,21.40
2017-07-01T10:55:32.405Z,22.00
2017-07-01T10:58:00.084Z,22.60
2017-07-01T11:00:28.491Z,22.60
2017-07-01T11:02:57.013Z,22.50
2017-07-01T11:05:24.657Z,22.30
2017-07-01T11:07:53.097Z,22.20
2017-07-01T11:10:20.771Z,22.10
2017-07-01T11:12:49.205Z,22.20
2017-07-01T11:15:16.878Z,22.20
2017-07-01T11:17:45.302Z,22.00
2017-07-01T11:20:13.083Z,21.90
2017-07-01T11:22:40.693Z,22.10
2017-07-01T11:25:08.392Z,22.60
2017-07-01T11:27:37.489Z,23.80
2017-07-01T11:30:05.098Z,23.70
2017-07-01T11:32:32.842Z,24.30
2017-07-01T11:35:00.451Z,24.20
2017-07-01T11:37:28.109Z,24.20
2017-07-01T11:39:55.695Z,24.10
2017-07-01T11:42:23.452Z,23.90
2017-07-01T11:44:51.078Z,23.70
2017-07-01T11:47:18.682Z,23.70
2017-07-01T11:49:46.338Z,23.40
2017-07-01T11:52:14.123Z,22.90
2017-07-01T11:54:41.756Z,22.20
2017-07-01T11:57:09.407Z,21.40
2017-07-01T11:59:37.037Z,20.50
2017-07-01T12:02:04.904Z,20.30
2017-07-01T12:04:34.242Z,20.40
2017-07-01T12:07:01.877Z,20.50
2017-07-01T12:09:29.556Z,20.40
2017-07-01T12:11:57.437Z,20.40
2017-07-01T12:14:25.081Z,20.60
2017-07-01T12:16:52.682Z,20.90
2017-07-01T12:19:20.298Z,20.90
2017-07-01T12:21:48.708Z,20.70
2017-07-01T12:24:16.327Z,20.70
2017-07-01T12:26:44.019Z,20.70
2017-07-01T12:29:11.627Z,20.50
2017-07-01T12:31:39.231Z,20.40
2017-07-01T12:34:06.878Z,20.60
2017-07-01T12:36:34.489Z,20.80
2017-07-01T12:39:02.126Z,20.90
2017-07-01T12:41:30.659Z,21.10
2017-07-01T12:43:58.337Z,21.30
2017-07-01T12:46:26.014Z,21.60
2017-07-01T12:48:53.629Z,21.90
2017-07-01T12:51:21.292Z,22.20
2017-07-01T12:53:48.925Z,22.40
2017-07-01T12:56:16.532Z,22.40
2017-07-01T12:58:44.214Z,22.60
2017-07-01T13:01:11.811Z,22.40
2017-07-01T13:03:39.447Z,22.10
2017-07-01T13:06:07.076Z,22.00
2017-07-01T13:08:34.679Z,21.90
2017-07-01T13:11:03.120Z,22.10
2017-07-01T13:13:30.762Z,22.10
2017-07-01T13:15:58.405Z,22.30
2017-07-01T13:18:26.019Z,22.40
2017-07-01T13:20:53.626Z,22.30
2017-07-01T13:23:22.056Z,22.30
2017-07-01T13:25:49.698Z,22.20
2017-07-01T13:28:17.359Z,22.20
2017-07-01T13:30:44.964Z,22.30
2017-07-01T13:33:12.580Z,22.20
2017-07-01T13:35:40.214Z,22.10
2017-07-01T13:38:07.807Z,22.10
2017-07-01T13:40:35.452Z,22.30
2017-07-01T13:43:03.099Z,22.30
2017-07-01T13:45:30.706Z,22.30
2017-07-01T13:47:59.158Z,22.30
2017-07-01T13:50:27.537Z,22.10
2017-07-01T13:52:55.167Z,22.10
2017-07-01T13:55:23.619Z,22.00
2017-07-01T13:57:51.218Z,21.90
2017-07-01T14:00:18.869Z,22.00
2017-07-01T14:02:46.467Z,22.10
2017-07-01T14:05:14.892Z,22.20
2017-07-01T14:07:42.550Z,22.10
2017-07-01T14:10:10.168Z,22.20
2017-07-01T14:12:37.799Z,22.00
2017-07-01T14:15:05.406Z,22.00
2017-07-01T14:17:33.080Z,22.10
2017-07-01T14:20:00.688Z,22.00
2017-07-01T14:22:28.289Z,21.70
2017-07-01T14:24:55.936Z,21.70
2017-07-01T14:27:23.532Z,21.60
2017-07-01T14:29:51.178Z,21.40
2017-07-01T14:32:18.783Z,21.30
2017-07-01T14:34:46.386Z,21.00
2017-07-01T14:37:14.796Z,20.90
2017-07-01T14:39:42.461Z,20.80
2017-07-01T14:42:10.167Z,20.80
2017-07-01T14:44:37.784Z,20.80
2017-07-01T14:47:05.417Z,20.70
2017-07-01T14:49:33.847Z,19.00
2017-07-01T14:52:01.479Z,18.90
2017-07-01T14:54:29.132Z,18.10
2017-07-01T14:56:56.746Z,17.60
2017-07-01T14:59:24.424Z,17.20
2017-07-01T15:01:52.089Z,17.00
2017-07-01T15:04:19.706Z,16.90
2017-07-01T15:06:48.205Z,16.90
2017-07-01T15:09:15.832Z,16.80
2017-07-01T15:11:43.487Z,16.80
2017-07-01T15:14:11.145Z,16.90
2017-07-01T15:16:38.775Z,17.00
2017-07-01T15:19:06.431Z,17.10
2017-07-01T15:21:34.108Z,17.30
2017-07-01T15:24:02.595Z,17.60
2017-07-01T15:26:30.270Z,17.50
2017-07-01T15:28:57.902Z,17.70
2017-07-01T15:31:25.555Z,17.70
2017-07-01T15:33:53.465Z,17.70
2017-07-01T15:36:21.852Z,17.70
2017-07-01T15:38:49.508Z,17.70
2017-07-01T15:41:17.228Z,17.80
2017-07-01T15:43:45.647Z,17.90
2017-07-01T15:46:13.539Z,17.90
2017-07-01T15:48:41.170Z,17.90
2017-07-01T15:51:08.856Z,17.90
2017-07-01T15:53:36.526Z,17.80
2017-07-01T15:56:04.275Z,17.70
2017-07-01T15:58:31.945Z,17.70
2017-07-01T16:01:11.336Z,17.60
2017-07-01T16:03:38.967Z,17.50
2017-07-01T16:06:06.593Z,17.30
2017-07-01T16:08:34.294Z,17.20
2017-07-01T16:11:02.566Z,17.10
2017-07-01T16:13:30.223Z,16.90
2017-07-01T16:15:57.838Z,16.90
2017-07-01T16:18:25.458Z,16.90
2017-07-01T16:20:53.174Z,16.90
2017-07-01T16:23:20.800Z,16.90
2017-07-01T16:25:48.487Z,17.00
2017-07-01T16:28:16.871Z,17.10
2017-07-01T16:30:45.828Z,17.00
2017-07-01T16:33:14.325Z,17.20
2017-07-01T16:35:41.975Z,17.20
2017-07-01T16:38:09.659Z,17.30
2017-07-01T16:40:37.302Z,17.30
2017-07-01T16:43:04.922Z,17.30
2017-07-01T16:45:32.597Z,17.30
2017-07-01T16:48:00.296Z,17.30
2017-07-01T16:50:27.961Z,17.20
2017-07-01T16:52:55.593Z,17.20
2017-07-01T16:55:23.556Z,17.20
2017-07-01T16:57:51.236Z,17.20
2017-07-01T17:00:19.814Z,17.30
2017-07-01T17:02:47.515Z,17.40
2017-07-01T17:05:15.170Z,17.40
2017-07-01T17:07:42.848Z,17.50
2017-07-01T17:10:10.747Z,17.60
2017-07-01T17:12:38.422Z,17.60
2017-07-01T17:15:06.091Z,17.60
2017-07-01T17:17:33.718Z,17.60
2017-07-01T17:20:01.357Z,17.70
2017-07-01T17:22:29.041Z,17.70
2017-07-01T17:24:56.735Z,17.70
2017-07-01T17:27:24.481Z,17.70
2017-07-01T17:29:52.154Z,17.60
2017-07-01T17:32:19.799Z,17.60
2017-07-01T17:34:47.500Z,17.60
2017-07-01T17:37:15.900Z,17.40
2017-07-01T17:39:43.664Z,17.30
2017-07-01T17:42:11.290Z,17.30
2017-07-01T17:44:39.012Z,17.20
2017-07-01T17:47:07.448Z,17.20
2017-07-01T17:49:35.085Z,17.20
2017-07-01T17:52:02.787Z,17.20
2017-07-01T17:54:31.170Z,17.20
2017-07-01T17:56:58.816Z,17.10
2017-07-01T17:59:26.478Z,17.20
2017-07-01T18:01:54.119Z,17.10
2017-07-01T18:04:21.815Z,17.10
2017-07-01T18:06:50.218Z,17.00
2017-07-01T18:09:17.844Z,17.00
2017-07-01T18:11:47.465Z,17.00
2017-07-01T18:14:15.096Z,16.80
2017-07-01T18:16:42.957Z,16.90
2017-07-01T18:19:10.587Z,16.80
2017-07-01T18:21:38.211Z,16.90
2017-07-01T18:24:06.632Z,16.80
2017-07-01T18:26:34.366Z,16.80
2017-07-01T18:29:02.287Z,16.80
2017-07-01T18:31:30.074Z,16.70
2017-07-01T18:33:57.742Z,16.70
2017-07-01T18:36:25.447Z,16.70
2017-07-01T18:38:53.107Z,16.60
2017-07-01T18:41:20.826Z,16.60
2017-07-01T18:43:48.523Z,16.60
2017-07-01T18:46:16.140Z,16.50
2017-07-01T18:48:43.865Z,16.60
2017-07-01T18:51:12.259Z,16.50
2017-07-01T18:53:39.923Z,16.50
2017-07-01T18:56:07.559Z,16.50
2017-07-01T18:58:35.179Z,16.40
2017-07-01T19:01:03.649Z,16.40
2017-07-01T19:03:31.320Z,16.40
2017-07-01T19:05:59.069Z,16.40
2017-07-01T19:08:27.592Z,16.40
2017-07-01T19:10:55.262Z,16.40
2017-07-01T19:13:23.000Z,16.40
2017-07-01T19:15:51.399Z,16.50
2017-07-01T19:18:19.046Z,16.40
2017-07-01T19:20:46.666Z,16.50
2017-07-01T19:23:14.452Z,16.40
2017-07-01T19:25:42.147Z,16.40
2017-07-01T19:28:09.922Z,16.40
2017-07-01T19:30:38.429Z,16.30
2017-07-01T19:33:06.211Z,16.30
2017-07-01T19:35:33.854Z,16.30
2017-07-01T19:38:01.509Z,16.30
2017-07-01T19:40:30.046Z,16.20
2017-07-01T19:42:57.829Z,16.10
2017-07-01T19:45:26.240Z,16.10
2017-07-01T19:47:54.091Z,16.10
2017-07-01T19:50:21.736Z,16.10
2017-07-01T19:52:49.371Z,16.00
2017-07-01T19:55:17.048Z,16.00
2017-07-01T19:57:44.682Z,16.00
2017-07-01T20:00:12.459Z,16.00
2017-07-01T20:02:40.198Z,15.90
2017-07-01T20:05:07.866Z,15.90
2017-07-01T20:07:36.292Z,15.80
2017-07-01T20:10:04.068Z,15.80
2017-07-01T20:12:31.704Z,15.80
2017-07-01T20:14:59.351Z,15.80
2017-07-01T20:17:26.991Z,15.80
2017-07-01T20:19:54.663Z,15.80
2017-07-01T20:22:22.352Z,15.80
2017-07-01T20:24:50.114Z,15.80
2017-07-01T20:27:18.630Z,15.80
2017-07-01T20:29:46.298Z,15.80
2017-07-01T20:32:14.169Z,15.80
2017-07-01T20:34:41.912Z,15.70
2017-07-01T20:37:09.688Z,15.70
2017-07-01T20:39:37.460Z,15.70
2017-07-01T20:42:05.219Z,15.80
2017-07-01T20:44:32.978Z,15.80
2017-07-01T20:47:01.359Z,15.60
2017-07-01T20:49:29.136Z,15.60
2017-07-01T20:51:56.816Z,15.60
2017-07-01T20:54:24.466Z,15.60
2017-07-01T20:56:52.956Z,15.70
2017-07-01T20:59:21.352Z,15.70
2017-07-01T21:01:48.998Z,15.70
2017-07-01T21:04:16.679Z,15.60
2017-07-01T21:06:44.373Z,15.50
2017-07-01T21:09:13.263Z,15.50
2017-07-01T21:11:40.918Z,15.50
2017-07-01T21:14:08.598Z,15.50
2017-07-01T21:16:36.324Z,15.50
2017-07-01T21:19:04.069Z,15.50
2017-07-01T21:21:32.077Z,15.50
2017-07-01T21:24:00.494Z,15.40
2017-07-01T21:26:28.160Z,15.40
2017-07-01T21:28:55.871Z,15.40
2017-07-01T21:31:23.549Z,15.30
2017-07-01T21:33:51.229Z,15.30
2017-07-01T21:36:19.685Z,15.30
2017-07-01T21:38:47.327Z,15.20
2017-07-01T21:41:14.987Z,15.30
2017-07-01T21:43:42.616Z,15.30
2017-07-01T21:46:10.306Z,15.30
2017-07-01T21:48:37.985Z,15.30
2017-07-01T21:51:05.651Z,15.30
2017-07-01T21:53:33.364Z,15.30
2017-07-01T21:56:01.001Z,15.20
2017-07-01T21:58:28.689Z,15.30
2017-07-01T22:00:56.329Z,15.30
2017-07-01T22:03:23.975Z,15.30
2017-07-01T22:05:51.647Z,15.30
2017-07-01T22:08:19.305Z,15.30
2017-07-01T22:10:47.723Z,15.30
2017-07-01T22:13:15.391Z,15.20
2017-07-01T22:15:43.030Z,15.30
2017-07-01T22:18:10.731Z,15.30
2017-07-01T22:20:38.385Z,15.20
2017-07-01T22:23:06.099Z,15.30
2017-07-01T22:25:33.772Z,15.20
2017-07-01T22:28:02.184Z,15.20
2017-07-01T22:30:29.929Z,15.10
2017-07-01T22:32:57.560Z,15.20
2017-07-01T22:35:25.258Z,15.20
2017-07-01T22:37:53.061Z,15.10
2017-07-01T22:40:20.713Z,15.20
2017-07-01T22:42:48.400Z,15.20
2017-07-01T22:45:16.010Z,15.20
2017-07-01T22:47:43.660Z,15.20
2017-07-01T22:50:11.309Z,15.20
2017-07-01T22:52:38.947Z,15.20
2017-07-01T22:55:06.632Z,15.20
2017-07-01T22:57:34.356Z,15.20
2017-07-01T23:00:02.037Z,15.30
2017-07-01T23:02:30.424Z,15.20
2017-07-01T23:04:58.100Z,15.10
2017-07-01T23:07:25.768Z,15.20
2017-07-01T23:09:53.528Z,15.20
2017-07-01T23:12:21.193Z,15.20
2017-07-01T23:14:49.628Z,15.10
2017-07-01T23:17:17.266Z,15.10
2017-07-01T23:19:44.911Z,15.20
2017-07-01T23:22:12.559Z,15.10
2017-07-01T23:24:40.224Z,15.10
2017-07-01T23:27:07.872Z,15.10
2017-07-01T23:29:35.498Z,15.10
2017-07-01T23:32:03.264Z,15.00
2017-07-01T23:34:30.883Z,15.00
2017-07-01T23:36:59.464Z,15.00
2017-07-01T23:39:27.104Z,14.90
2017-07-01T23:41:54.723Z,14.90
2017-07-01T23:44:22.403Z,14.90
2017-07-01T23:46:50.107Z,14.90
2017-07-01T23:49:17.768Z,14.90
2017-07-01T23:51:45.412Z,15.00
2017-07-01T23:54:13.120Z,14.90
2017-07-01T23:56:40.779Z,14.90
2017-07-01T23:59:09.177Z,14.90
